Time;durP1;ratioP1;P1;durP2;ratioP2;P2;SDS_P1;SDS_P2;PMS_P1;PMS_P2;Temp;Humidity;BMP_temperature;BMP_pressure;BME280_temperature;BME280_humidity;BME280_pressure;Samples;Min_cycle;Max_cycle;Signal;HPM_P1;HPM_P2
2021/05/04 00:00:31;;;;;;;28.08;15.45;;;;;;;;;;5095161;28;20020;-64
2021/05/04 00:02:56;;;;;;;28.92;15.80;;;;;;;;;;5094857;28;20043;-65
2021/05/04 00:05:22;;;;;;;26.98;15.15;;;;;;;;;;5093865;28;20024;-65
2021/05/04 00:07:47;;;;;;;29.33;16.73;;;;;;;;;;5094998;28;20055;-65
2021/05/04 00:10:13;;;;;;;31.38;16.27;;;;;;;;;;5095309;28;20008;-65
2021/05/04 00:12:38;;;;;;;31.05;16.88;;;;;;;;;;5093780;28;20028;-65
2021/05/04 00:15:05;;;;;;;39.67;20.48;;;;;;;;;;5094837;28;20047;-64
2021/05/04 00:17:31;;;;;;;32.30;16.67;;;;;;;;;;5094732;28;20029;-63
2021/05/04 00:19:56;;;;;;;44.15;22.58;;;;;;;;;;5094896;28;20012;-63
2021/05/04 00:22:22;;;;;;;35.47;18.50;;;;;;;;;;5094875;28;20111;-63
2021/05/04 00:24:47;;;;;;;49.63;24.60;;;;;;;;;;5094024;28;20020;-63
2021/05/04 00:27:13;;;;;;;45.63;21.83;;;;;;;;;;5094693;28;20054;-63
2021/05/04 00:29:38;;;;;;;44.22;20.42;;;;;;;;;;5093373;28;20020;-63
2021/05/04 00:32:04;;;;;;;30.73;17.10;;;;;;;;;;5093394;28;20032;-63
2021/05/04 00:34:31;;;;;;;31.33;17.80;;;;;;;;;;5093332;28;20016;-63
2021/05/04 00:36:57;;;;;;;34.92;18.17;;;;;;;;;;5094535;28;20035;-63
2021/05/04 00:39:26;;;;;;;31.25;16.67;;;;;;;;;;5093504;28;20054;-63
2021/05/04 00:41:51;;;;;;;28.88;15.48;;;;;;;;;;5094423;28;20024;-63
2021/05/04 00:44:17;;;;;;;26.92;15.80;;;;;;;;;;5094028;28;20048;-63
2021/05/04 00:46:42;;;;;;;26.85;15.48;;;;;;;;;;5094126;28;20031;-63
2021/05/04 00:49:07;;;;;;;26.80;14.90;;;;;;;;;;5094035;28;20115;-63
2021/05/04 00:51:33;;;;;;;26.95;15.32;;;;;;;;;;5094005;28;20110;-63
2021/05/04 00:53:59;;;;;;;30.77;15.77;;;;;;;;;;5092887;28;20024;-63
2021/05/04 00:56:24;;;;;;;29.45;15.60;;;;;;;;;;5094063;28;20024;-63
2021/05/04 00:58:50;;;;;;;27.52;16.05;;;;;;;;;;5094035;28;20462;-62
2021/05/04 01:01:16;;;;;;;25.70;15.32;;;;;;;;;;5094114;28;20051;-63
2021/05/04 01:03:41;;;;;;;29.20;15.35;;;;;;;;;;5094117;28;20051;-64
2021/05/04 01:06:08;;;;;;;27.80;16.45;;;;;;;;;;5093837;28;20058;-63
2021/05/04 01:08:34;;;;;;;31.67;17.92;;;;;;;;;;5094196;28;20123;-62
2021/05/04 01:10:59;;;;;;;29.25;17.38;;;;;;;;;;5093776;28;20052;-62
2021/05/04 01:13:24;;;;;;;27.35;16.92;;;;;;;;;;5093668;28;20008;-61
2021/05/04 01:15:50;;;;;;;31.20;16.92;;;;;;;;;;5093776;28;20039;-61
2021/05/04 01:18:15;;;;;;;29.85;17.13;;;;;;;;;;5093676;28;20020;-62
2021/05/04 01:20:41;;;;;;;29.52;16.55;;;;;;;;;;5093578;28;20069;-62
2021/05/04 01:23:07;;;;;;;25.35;15.98;;;;;;;;;;5093704;28;20019;-62
2021/05/04 01:25:32;;;;;;;27.85;16.30;;;;;;;;;;5093616;28;20110;-62
2021/05/04 01:27:58;;;;;;;24.80;15.43;;;;;;;;;;5093584;28;20028;-62
2021/05/04 01:30:23;;;;;;;29.73;15.98;;;;;;;;;;5093666;28;20035;-61
2021/05/04 01:32:49;;;;;;;27.92;16.05;;;;;;;;;;5093762;28;20469;-61
2021/05/04 01:35:14;;;;;;;31.25;17.05;;;;;;;;;;5092168;28;20026;-61
2021/05/04 01:37:40;;;;;;;27.38;16.40;;;;;;;;;;5093481;28;20019;-62
2021/05/04 01:40:06;;;;;;;28.83;16.50;;;;;;;;;;5093577;28;20058;-64
2021/05/04 01:42:31;;;;;;;27.48;16.63;;;;;;;;;;5092949;28;20040;-62
2021/05/04 01:44:57;;;;;;;30.40;17.10;;;;;;;;;;5093669;28;20044;-62
2021/05/04 01:47:23;;;;;;;27.98;16.42;;;;;;;;;;5093320;28;20028;-61
2021/05/04 01:49:48;;;;;;;29.27;16.83;;;;;;;;;;5093425;28;20115;-61
2021/05/04 01:52:15;;;;;;;29.88;16.67;;;;;;;;;;5093292;28;20043;-61
2021/05/04 01:54:41;;;;;;;27.83;16.17;;;;;;;;;;5093351;28;20028;-61
2021/05/04 01:57:06;;;;;;;28.50;16.40;;;;;;;;;;5093385;28;20027;-62
2021/05/04 01:59:33;;;;;;;29.58;17.10;;;;;;;;;;5093386;28;20104;-62
2021/05/04 02:01:58;;;;;;;29.00;16.45;;;;;;;;;;5093197;28;20574;-62
2021/05/04 02:04:24;;;;;;;29.23;16.08;;;;;;;;;;5091939;28;20028;-62
2021/05/04 02:06:51;;;;;;;32.83;17.77;;;;;;;;;;5092967;28;20070;-62
2021/05/04 02:09:17;;;;;;;26.73;16.77;;;;;;;;;;5092959;28;20032;-62
2021/05/04 02:11:42;;;;;;;29.55;17.13;;;;;;;;;;5093236;28;20012;-62
2021/05/04 02:14:08;;;;;;;30.27;17.15;;;;;;;;;;5093165;28;20024;-62
2021/05/04 02:16:34;;;;;;;31.58;18.77;;;;;;;;;;5093023;28;20009;-62
2021/05/04 02:19:00;;;;;;;33.35;17.35;;;;;;;;;;5093115;28;20119;-62
2021/05/04 02:21:25;;;;;;;31.05;17.08;;;;;;;;;;5074979;28;20048;-62
2021/05/04 02:23:51;;;;;;;29.30;16.98;;;;;;;;;;5091839;28;20439;-62
2021/05/04 02:26:17;;;;;;;32.80;16.73;;;;;;;;;;5093241;28;20020;-62
2021/05/04 02:28:44;;;;;;;32.28;17.27;;;;;;;;;;5091774;28;20036;-61
2021/05/04 02:31:09;;;;;;;30.73;16.73;;;;;;;;;;5092999;28;20094;-61
2021/05/04 02:33:36;;;;;;;31.60;16.77;;;;;;;;;;5092838;28;20044;-62
2021/05/04 02:36:03;;;;;;;28.40;15.95;;;;;;;;;;5093075;28;20012;-62
2021/05/04 02:38:30;;;;;;;27.40;15.95;;;;;;;;;;5091874;28;20168;-62
2021/05/04 02:40:55;;;;;;;27.02;16.02;;;;;;;;;;5093048;28;20020;-61
2021/05/04 02:43:21;;;;;;;27.02;16.55;;;;;;;;;;5092236;28;20493;-61
2021/05/04 02:45:46;;;;;;;27.75;16.17;;;;;;;;;;5092522;28;20470;-62
2021/05/04 02:48:12;;;;;;;30.85;17.02;;;;;;;;;;5094021;28;20032;-62
2021/05/04 02:50:37;;;;;;;27.58;16.05;;;;;;;;;;5096680;28;20031;-62
2021/05/04 02:53:03;;;;;;;28.42;15.68;;;;;;;;;;5096537;28;20024;-62
2021/05/04 02:55:29;;;;;;;27.58;15.95;;;;;;;;;;5096593;28;20106;-61
2021/05/04 02:57:55;;;;;;;28.20;16.30;;;;;;;;;;5095000;28;20042;-61
2021/05/04 03:00:20;;;;;;;27.67;16.23;;;;;;;;;;5096326;28;20020;-62
2021/05/04 03:02:46;;;;;;;27.45;14.93;;;;;;;;;;5096068;28;20028;-62
2021/05/04 03:05:12;;;;;;;24.65;14.88;;;;;;;;;;5096495;28;20103;-61
2021/05/04 03:07:37;;;;;;;26.27;14.80;;;;;;;;;;5096277;28;20054;-61
2021/05/04 03:10:04;;;;;;;25.90;15.02;;;;;;;;;;5096331;28;20047;-61
2021/05/04 03:12:29;;;;;;;27.20;15.20;;;;;;;;;;5096179;28;20252;-61
2021/05/04 03:14:55;;;;;;;26.20;14.05;;;;;;;;;;5096119;28;20095;-61
2021/05/04 03:17:20;;;;;;;25.25;15.02;;;;;;;;;;5096124;28;20020;-61
2021/05/04 03:19:45;;;;;;;26.10;14.98;;;;;;;;;;5095965;28;20004;-61
2021/05/04 03:22:11;;;;;;;28.52;15.07;;;;;;;;;;5096080;28;20023;-61
2021/05/04 03:24:37;;;;;;;27.23;14.45;;;;;;;;;;5095884;28;20023;-61
2021/05/04 03:27:03;;;;;;;29.13;15.20;;;;;;;;;;5095811;28;20046;-61
2021/05/04 03:29:28;;;;;;;25.27;14.98;;;;;;;;;;5095628;28;20409;-61
2021/05/04 03:31:54;;;;;;;25.38;14.73;;;;;;;;;;5095597;28;20047;-61
2021/05/04 03:34:19;;;;;;;25.15;14.52;;;;;;;;;;5095647;28;20016;-61
2021/05/04 03:36:46;;;;;;;29.65;16.20;;;;;;;;;;5095757;28;20024;-61
2021/05/04 03:39:11;;;;;;;25.60;15.75;;;;;;;;;;5095668;28;20012;-61
2021/05/04 03:41:37;;;;;;;30.67;16.95;;;;;;;;;;5094108;28;20086;-61
2021/05/04 03:44:02;;;;;;;28.45;17.25;;;;;;;;;;5095411;28;20048;-61
2021/05/04 03:46:28;;;;;;;30.15;16.25;;;;;;;;;;5095398;28;20034;-62
2021/05/04 03:48:53;;;;;;;30.67;17.00;;;;;;;;;;5095234;28;20070;-61
2021/05/04 03:51:19;;;;;;;32.65;17.92;;;;;;;;;;5095302;28;20021;-61
2021/05/04 03:53:45;;;;;;;28.40;16.55;;;;;;;;;;5095384;28;20065;-62
2021/05/04 03:56:10;;;;;;;27.73;17.55;;;;;;;;;;5095360;28;20036;-61
2021/05/04 03:58:35;;;;;;;27.70;16.92;;;;;;;;;;5093990;28;20035;-61
2021/05/04 04:01:01;;;;;;;28.60;15.90;;;;;;;;;;5095183;28;20024;-62
2021/05/04 04:03:27;;;;;;;27.48;16.23;;;;;;;;;;5094998;28;20016;-62
2021/05/04 04:05:53;;;;;;;26.40;16.15;;;;;;;;;;5094985;28;20043;-62
2021/05/04 04:08:19;;;;;;;26.83;17.05;;;;;;;;;;5094912;28;20067;-62
2021/05/04 04:10:45;;;;;;;24.95;14.93;;;;;;;;;;5095055;28;20042;-62
2021/05/04 04:13:10;;;;;;;26.35;14.80;;;;;;;;;;5094824;28;20062;-61
2021/05/04 04:15:35;;;;;;;27.17;15.43;;;;;;;;;;5093548;28;20028;-61
2021/05/04 04:18:01;;;;;;;27.52;15.52;;;;;;;;;;5094974;28;20012;-61
2021/05/04 04:20:26;;;;;;;26.70;14.50;;;;;;;;;;5095008;28;20028;-61
2021/05/04 04:22:52;;;;;;;25.60;13.50;;;;;;;;;;5093631;28;20512;-61
2021/05/04 04:25:18;;;;;;;23.88;14.73;;;;;;;;;;5094710;28;20032;-62
2021/05/04 04:27:43;;;;;;;24.55;13.68;;;;;;;;;;5094545;28;20035;-61
2021/05/04 04:30:09;;;;;;;23.10;13.52;;;;;;;;;;5094584;28;20084;-61
2021/05/04 04:32:34;;;;;;;25.58;13.95;;;;;;;;;;5094528;28;20034;-61
2021/05/04 04:35:00;;;;;;;21.08;13.02;;;;;;;;;;5093073;28;20070;-61
2021/05/04 04:37:26;;;;;;;24.08;12.23;;;;;;;;;;5092814;28;20024;-61
2021/05/04 04:39:51;;;;;;;20.83;12.45;;;;;;;;;;5094558;28;20036;-62
2021/05/04 04:42:17;;;;;;;21.52;11.98;;;;;;;;;;5094053;28;20017;-61
2021/05/04 04:44:42;;;;;;;21.38;11.98;;;;;;;;;;5094478;28;20420;-61
2021/05/04 04:47:08;;;;;;;28.70;13.80;;;;;;;;;;5094159;28;20024;-61
2021/05/04 04:49:34;;;;;;;18.17;10.75;;;;;;;;;;5094255;28;20370;-61
2021/05/04 04:51:59;;;;;;;20.35;11.10;;;;;;;;;;5094336;28;20447;-62
2021/05/04 04:54:25;;;;;;;21.77;11.60;;;;;;;;;;5094179;28;20074;-61
2021/05/04 04:56:51;;;;;;;20.52;12.38;;;;;;;;;;5094288;28;20103;-61
2021/05/04 04:59:16;;;;;;;20.20;12.30;;;;;;;;;;5094223;28;20120;-61
2021/05/04 05:01:42;;;;;;;18.95;11.55;;;;;;;;;;5094111;28;20028;-61
2021/05/04 05:04:07;;;;;;;22.10;11.88;;;;;;;;;;5094073;28;20050;-60
2021/05/04 05:06:33;;;;;;;21.30;11.68;;;;;;;;;;5093680;28;20008;-61
2021/05/04 05:09:00;;;;;;;17.20;10.43;;;;;;;;;;5093415;28;20501;-62
2021/05/04 05:11:26;;;;;;;17.20;8.25;;;;;;;;;;5092042;28;20347;-61
2021/05/04 05:13:51;;;;;;;11.07;7.10;;;;;;;;;;5092367;28;20072;-62
2021/05/04 05:16:19;;;;;;;10.60;6.88;;;;;;;;;;5093236;28;20019;-62
2021/05/04 05:18:44;;;;;;;8.82;6.28;;;;;;;;;;5092072;28;20424;-62
2021/05/04 05:21:11;;;;;;;9.45;6.97;;;;;;;;;;5093269;28;20028;-62
2021/05/04 05:23:37;;;;;;;8.05;5.75;;;;;;;;;;5093388;28;20528;-62
2021/05/04 05:26:03;;;;;;;7.93;5.78;;;;;;;;;;5092735;28;20381;-62
2021/05/04 05:28:29;;;;;;;7.32;5.57;;;;;;;;;;5093209;28;20036;-61
2021/05/04 05:30:55;;;;;;;6.43;4.75;;;;;;;;;;5092838;28;20019;-60
2021/05/04 05:33:20;;;;;;;4.88;4.13;;;;;;;;;;5093152;28;20123;-59
2021/05/04 05:35:47;;;;;;;6.95;3.47;;;;;;;;;;5091840;28;20013;-60
2021/05/04 05:38:12;;;;;;;5.50;3.95;;;;;;;;;;5093358;28;20020;-60
2021/05/04 05:40:38;;;;;;;4.95;3.65;;;;;;;;;;5092939;28;20221;-60
2021/05/04 05:43:03;;;;;;;5.18;4.15;;;;;;;;;;5089595;28;20088;-60
2021/05/04 05:45:29;;;;;;;3.90;3.53;;;;;;;;;;5093166;28;20032;-60
2021/05/04 05:47:54;;;;;;;6.05;3.78;;;;;;;;;;5092606;28;20027;-60
2021/05/04 05:50:20;;;;;;;5.03;3.55;;;;;;;;;;5093125;28;20028;-60
2021/05/04 05:52:45;;;;;;;5.72;3.95;;;;;;;;;;5091976;28;20024;-60
2021/05/04 05:55:11;;;;;;;5.88;3.90;;;;;;;;;;5093223;28;20074;-60
2021/05/04 05:57:36;;;;;;;4.85;4.13;;;;;;;;;;5093011;28;20047;-59
2021/05/04 06:00:03;;;;;;;7.13;4.15;;;;;;;;;;5092984;28;20489;-59
2021/05/04 06:02:39;;;;;;;5.03;3.85;;;;;;;;;;5093120;28;20020;-59
2021/05/04 06:05:04;;;;;;;8.27;4.57;;;;;;;;;;5092996;28;20028;-65
2021/05/04 06:07:30;;;;;;;5.75;4.47;;;;;;;;;;5092826;28;20020;-61
2021/05/04 06:09:55;;;;;;;7.95;4.80;;;;;;;;;;5092878;28;20024;-61
2021/05/04 06:12:21;;;;;;;6.22;3.97;;;;;;;;;;5092909;28;20044;-61
2021/05/04 06:14:47;;;;;;;6.05;4.05;;;;;;;;;;5092854;28;20028;-61
2021/05/04 06:17:12;;;;;;;6.15;3.90;;;;;;;;;;5091702;28;20044;-61
2021/05/04 06:19:38;;;;;;;4.60;2.92;;;;;;;;;;5092727;28;20494;-61
2021/05/04 06:22:03;;;;;;;5.00;3.75;;;;;;;;;;5091578;28;20035;-61
2021/05/04 06:24:29;;;;;;;4.10;3.70;;;;;;;;;;5094647;28;20032;-62
2021/05/04 06:26:54;;;;;;;5.60;3.83;;;;;;;;;;5096719;28;20023;-62
2021/05/04 06:29:20;;;;;;;4.57;3.65;;;;;;;;;;5096594;28;20036;-62
2021/05/04 06:31:50;;;;;;;5.68;3.55;;;;;;;;;;5096544;28;20544;-62
2021/05/04 06:34:15;;;;;;;4.60;3.38;;;;;;;;;;5095335;28;20020;-62
2021/05/04 06:36:41;;;;;;;4.43;2.88;;;;;;;;;;5096569;28;20058;-62
2021/05/04 06:39:06;;;;;;;5.00;3.95;;;;;;;;;;5096569;28;20020;-62
2021/05/04 06:41:35;;;;;;;6.00;3.25;;;;;;;;;;5095160;28;20020;-62
2021/05/04 06:44:02;;;;;;;5.07;3.33;;;;;;;;;;5094940;28;20059;-62
2021/05/04 06:46:29;;;;;;;2.88;2.60;;;;;;;;;;5096351;28;20032;-62
2021/05/04 06:48:55;;;;;;;5.38;3.30;;;;;;;;;;5096208;28;20030;-62
2021/05/04 06:51:20;;;;;;;13.48;4.35;;;;;;;;;;5096185;28;20012;-62
2021/05/04 06:53:46;;;;;;;3.85;3.47;;;;;;;;;;5096226;28;20020;-62
2021/05/04 06:56:11;;;;;;;5.95;3.30;;;;;;;;;;5096146;28;20459;-62
2021/05/04 06:58:36;;;;;;;3.78;3.30;;;;;;;;;;5096078;28;20024;-62
2021/05/04 07:01:02;;;;;;;3.97;3.08;;;;;;;;;;5096088;28;20103;-62
2021/05/04 07:03:27;;;;;;;3.33;3.10;;;;;;;;;;5095980;28;20035;-62
2021/05/04 07:05:53;;;;;;;31.17;12.65;;;;;;;;;;5095986;28;20429;-62
2021/05/04 07:08:19;;;;;;;8.43;4.10;;;;;;;;;;5077694;28;20440;-62
2021/05/04 07:10:44;;;;;;;24.00;5.18;;;;;;;;;;5096035;28;20024;-62
2021/05/04 07:13:14;;;;;;;50.28;7.22;;;;;;;;;;5094571;28;20412;-62
2021/05/04 07:15:39;;;;;;;6.57;3.10;;;;;;;;;;5095666;28;20024;-62
2021/05/04 07:18:09;;;;;;;3.35;3.05;;;;;;;;;;5095751;28;20385;-62
2021/05/04 07:20:34;;;;;;;5.32;3.10;;;;;;;;;;5095300;28;20116;-62
2021/05/04 07:23:00;;;;;;;4.72;2.65;;;;;;;;;;5095611;28;20458;-62
2021/05/04 07:25:26;;;;;;;3.60;2.75;;;;;;;;;;5095713;28;20016;-62
2021/05/04 07:27:53;;;;;;;2.97;2.67;;;;;;;;;;5095443;28;20035;-62
2021/05/04 07:30:18;;;;;;;1.25;1.15;;;;;;;;;;5095525;28;20040;-61
2021/05/04 07:32:44;;;;;;;3.53;2.80;;;;;;;;;;5095477;28;20513;-61
2021/05/04 07:35:09;;;;;;;7.82;3.20;;;;;;;;;;5095002;28;20107;-61
2021/05/04 07:37:38;;;;;;;3.85;2.72;;;;;;;;;;5094226;28;20062;-61
2021/05/04 07:40:03;;;;;;;1.90;1.48;;;;;;;;;;5094002;28;20514;-61
2021/05/04 07:42:29;;;;;;;2.88;2.45;;;;;;;;;;5093517;28;20099;-61
2021/05/04 07:44:55;;;;;;;4.68;2.92;;;;;;;;;;5093913;28;20024;-61
2021/05/04 07:47:20;;;;;;;2.35;1.75;;;;;;;;;;5095263;28;20020;-61
2021/05/04 07:49:47;;;;;;;0.90;0.88;;;;;;;;;;5095246;28;20051;-61
2021/05/04 07:52:13;;;;;;;3.10;2.72;;;;;;;;;;5095023;28;20035;-61
2021/05/04 07:54:39;;;;;;;3.20;2.60;;;;;;;;;;5094946;28;20024;-62
2021/05/04 07:57:05;;;;;;;3.80;2.88;;;;;;;;;;5094991;28;20066;-62
2021/05/04 07:59:30;;;;;;;2.03;1.42;;;;;;;;;;5094924;28;20019;-62
2021/05/04 08:01:56;;;;;;;4.70;1.65;;;;;;;;;;5094862;28;20031;-61
2021/05/04 08:04:21;;;;;;;3.15;2.22;;;;;;;;;;5094864;28;20031;-61
2021/05/04 08:06:47;;;;;;;4.80;2.70;;;;;;;;;;5093569;28;20469;-62
2021/05/04 08:09:12;;;;;;;2.47;2.28;;;;;;;;;;5094612;28;20444;-62
2021/05/04 08:11:39;;;;;;;1.75;1.40;;;;;;;;;;5094693;28;20081;-62
2021/05/04 08:14:05;;;;;;;4.00;2.50;;;;;;;;;;5094295;28;20047;-62
2021/05/04 08:16:32;;;;;;;3.17;2.53;;;;;;;;;;5094724;28;20028;-62
2021/05/04 08:18:57;;;;;;;4.15;2.17;;;;;;;;;;5094641;28;20020;-62
2021/05/04 08:21:24;;;;;;;0.95;0.80;;;;;;;;;;5094557;28;20478;-62
2021/05/04 08:23:49;;;;;;;1.33;1.23;;;;;;;;;;5094621;28;20080;-62
2021/05/04 08:26:15;;;;;;;2.70;2.25;;;;;;;;;;5093175;28;20598;-61
2021/05/04 08:28:40;;;;;;;1.48;0.88;;;;;;;;;;5094275;28;20504;-61
2021/05/04 08:31:06;;;;;;;1.77;1.67;;;;;;;;;;5094416;28;20028;-62
2021/05/04 08:33:31;;;;;;;0.95;0.95;;;;;;;;;;5093100;28;20019;-62
2021/05/04 08:35:57;;;;;;;2.33;2.13;;;;;;;;;;5094168;28;20024;-62
2021/05/04 08:38:22;;;;;;;1.50;1.30;;;;;;;;;;5094136;28;20489;-62
2021/05/04 08:40:48;;;;;;;2.30;2.10;;;;;;;;;;5092831;28;20028;-62
2021/05/04 08:43:13;;;;;;;1.25;1.15;;;;;;;;;;5093694;28;20051;-62
2021/05/04 08:45:42;;;;;;;1.20;1.10;;;;;;;;;;5109174;28;20042;-62
2021/05/04 08:48:08;;;;;;;1.75;1.65;;;;;;;;;;5093983;28;20032;-62
2021/05/04 08:50:36;;;;;;;1.90;1.58;;;;;;;;;;5093998;28;20110;-62
2021/05/04 08:53:01;;;;;;;0.80;0.80;;;;;;;;;;5093959;28;20026;-62
2021/05/04 08:55:27;;;;;;;2.90;1.60;;;;;;;;;;5092681;28;20028;-62
2021/05/04 08:57:52;;;;;;;4.50;2.20;;;;;;;;;;5092566;28;20016;-62
2021/05/04 09:00:18;;;;;;;4.10;2.33;;;;;;;;;;5092481;28;20355;-62
2021/05/04 09:02:57;;;;;;;1.10;1.08;;;;;;;;;;5093747;28;20016;-62
2021/05/04 09:05:22;;;;;;;2.28;2.00;;;;;;;;;;5092607;28;20020;-61
2021/05/04 09:07:49;;;;;;;2.47;1.40;;;;;;;;;;5092044;28;20012;-62
2021/05/04 09:10:34;;;;;;;1.38;0.82;;;;;;;;;;5093939;28;20036;-62
2021/05/04 09:15:43;;;;;;;1.58;1.48;;;;;;;;;;5093498;28;20028;-61
2021/05/04 09:18:33;;;;;;;4.55;2.17;;;;;;;;;;5093657;28;20040;-62
2021/05/04 09:21:02;;;;;;;1.05;0.80;;;;;;;;;;5093526;28;20024;-62
2021/05/04 09:23:28;;;;;;;2.60;1.65;;;;;;;;;;5092258;28;20466;-62
2021/05/04 09:25:54;;;;;;;1.35;0.70;;;;;;;;;;5093498;28;20024;-62
2021/05/04 09:28:20;;;;;;;1.02;0.90;;;;;;;;;;5093262;28;20484;-62
2021/05/04 09:30:56;;;;;;;1.55;1.25;;;;;;;;;;5092099;28;20060;-62
2021/05/04 09:33:22;;;;;;;1.50;1.10;;;;;;;;;;5091970;28;20426;-62
2021/05/04 09:35:47;;;;;;;4.03;1.40;;;;;;;;;;5091996;28;20008;-62
2021/05/04 09:38:22;;;;;;;1.98;1.60;;;;;;;;;;5093274;28;20032;-62
2021/05/04 09:40:48;;;;;;;1.73;1.63;;;;;;;;;;5093388;28;20055;-62
2021/05/04 09:43:27;;;;;;;3.67;1.50;;;;;;;;;;5092627;28;20129;-62
2021/05/04 09:45:53;;;;;;;1.67;1.33;;;;;;;;;;5093268;28;20039;-62
2021/05/04 09:48:22;;;;;;;2.38;0.75;;;;;;;;;;5093107;28;20389;-62
2021/05/04 09:50:52;;;;;;;2.30;1.20;;;;;;;;;;5093204;28;20059;-61
2021/05/04 09:53:25;;;;;;;5.53;1.87;;;;;;;;;;5093199;28;20073;-61
2021/05/04 09:55:51;;;;;;;3.67;0.73;;;;;;;;;;5093213;28;20266;-61
2021/05/04 09:58:19;;;;;;;2.30;1.00;;;;;;;;;;5095118;28;20020;-62
2021/05/04 10:00:45;;;;;;;1.50;1.40;;;;;;;;;;5097297;28;20034;-62
2021/05/04 10:03:10;;;;;;;1.85;0.73;;;;;;;;;;5097276;28;20020;-62
2021/05/04 10:05:36;;;;;;;1.90;0.90;;;;;;;;;;5095843;28;20058;-62
2021/05/04 10:08:01;;;;;;;2.60;1.23;;;;;;;;;;5097026;28;20056;-62
2021/05/04 10:10:27;;;;;;;2.28;1.67;;;;;;;;;;5097091;28;20020;-62
2021/05/04 10:12:52;;;;;;;2.97;1.27;;;;;;;;;;5097009;28;20016;-62
2021/05/04 10:15:18;;;;;;;1.88;1.40;;;;;;;;;;5096890;28;20032;-62
2021/05/04 10:17:43;;;;;;;0.68;0.68;;;;;;;;;;5096945;28;20028;-62
2021/05/04 10:20:13;;;;;;;2.20;1.80;;;;;;;;;;5096932;28;20054;-62
2021/05/04 10:22:39;;;;;;;1.27;1.20;;;;;;;;;;5096867;28;20032;-62
2021/05/04 10:25:05;;;;;;;2.58;1.30;;;;;;;;;;5095519;28;20069;-62
2021/05/04 10:27:31;;;;;;;0.85;0.85;;;;;;;;;;5096630;28;20020;-62
2021/05/04 10:29:56;;;;;;;3.97;0.93;;;;;;;;;;5096572;28;20034;-62
2021/05/04 10:32:40;;;;;;;3.17;1.25;;;;;;;;;;5096692;28;20028;-62
2021/05/04 10:35:24;;;;;;;1.50;1.27;;;;;;;;;;5095235;28;20077;-62
2021/05/04 10:38:10;;;;;;;1.02;0.90;;;;;;;;;;5096477;28;20051;-62
2021/05/04 10:40:37;;;;;;;0.80;0.80;;;;;;;;;;5096532;28;20454;-62
2021/05/04 10:43:22;;;;;;;4.35;1.30;;;;;;;;;;5094647;28;20032;-62
2021/05/04 10:45:55;;;;;;;2.22;1.38;;;;;;;;;;5088689;28;20486;-62
2021/05/04 10:48:35;;;;;;;1.15;0.52;;;;;;;;;;5096308;28;20549;-62
2021/05/04 10:51:01;;;;;;;3.00;1.20;;;;;;;;;;5096399;28;20466;-62
2021/05/04 10:53:46;;;;;;;0.80;0.80;;;;;;;;;;5096202;28;20070;-62
2021/05/04 10:56:13;;;;;;;2.95;1.80;;;;;;;;;;5096187;28;20046;-62
2021/05/04 10:58:49;;;;;;;1.33;0.80;;;;;;;;;;5096001;28;20024;-62
2021/05/04 11:01:20;;;;;;;0.55;0.55;;;;;;;;;;5094776;28;20036;-62
2021/05/04 11:03:47;;;;;;;2.25;1.80;;;;;;;;;;5096018;28;20039;-62
2021/05/04 11:06:32;;;;;;;0.93;0.93;;;;;;;;;;5095843;28;20047;-62
2021/05/04 11:09:04;;;;;;;1.23;0.57;;;;;;;;;;5093914;28;20062;-62
2021/05/04 11:11:37;;;;;;;0.65;0.63;;;;;;;;;;5094644;28;20470;-62
2021/05/04 11:14:04;;;;;;;1.38;0.88;;;;;;;;;;5096000;28;20111;-62
2021/05/04 11:16:33;;;;;;;0.88;0.68;;;;;;;;;;5095815;28;20028;-62
2021/05/04 11:19:06;;;;;;;0.93;0.93;;;;;;;;;;5095761;28;20059;-62
2021/05/04 11:21:38;;;;;;;1.15;0.80;;;;;;;;;;5095778;28;20028;-62
2021/05/04 11:24:05;;;;;;;4.03;2.38;;;;;;;;;;5095752;28;20039;-61
2021/05/04 11:26:49;;;;;;;3.75;1.60;;;;;;;;;;5095504;28;20512;-61
2021/05/04 11:29:15;;;;;;;1.95;1.30;;;;;;;;;;5095375;28;20024;-61
2021/05/04 11:31:44;;;;;;;2.75;1.50;;;;;;;;;;5095488;28;20122;-61
2021/05/04 11:34:28;;;;;;;1.60;1.20;;;;;;;;;;5095461;28;20431;-61
2021/05/04 11:36:54;;;;;;;2.22;1.23;;;;;;;;;;5111127;28;20073;-61
2021/05/04 11:39:19;;;;;;;2.60;0.93;;;;;;;;;;5095350;28;20020;-61
2021/05/04 11:42:03;;;;;;;1.30;1.20;;;;;;;;;;5094000;28;20028;-60
2021/05/04 11:44:33;;;;;;;1.50;0.63;;;;;;;;;;5095329;28;20045;-61
2021/05/04 11:47:17;;;;;;;5.68;1.35;;;;;;;;;;5095250;28;20028;-61
2021/05/04 11:49:43;;;;;;;0.60;0.60;;;;;;;;;;5095037;28;20035;-61
2021/05/04 11:52:09;;;;;;;2.58;0.77;;;;;;;;;;5095175;28;20024;-61
2021/05/04 11:54:35;;;;;;;0.80;0.75;;;;;;;;;;5095101;28;20028;-60
2021/05/04 11:57:00;;;;;;;0.80;0.80;;;;;;;;;;5095119;28;20050;-60
2021/05/04 11:59:29;;;;;;;3.67;1.65;;;;;;;;;;5095012;28;20118;-60
2021/05/04 12:01:54;;;;;;;1.05;1.05;;;;;;;;;;5094975;28;20016;-61
2021/05/04 12:04:22;;;;;;;0.50;0.50;;;;;;;;;;5094818;28;20034;-61
2021/05/04 12:06:48;;;;;;;1.00;1.00;;;;;;;;;;5094776;28;20550;-61
2021/05/04 12:09:16;;;;;;;0.68;0.60;;;;;;;;;;5093439;28;20137;-61
2021/05/04 12:11:42;;;;;;;1.00;0.82;;;;;;;;;;5094761;28;20089;-61
2021/05/04 12:14:08;;;;;;;0.70;0.70;;;;;;;;;;5094691;28;20486;-60
2021/05/04 12:16:34;;;;;;;1.17;0.60;;;;;;;;;;5094557;28;20473;-61
2021/05/04 12:19:01;;;;;;;0.73;0.73;;;;;;;;;;5094637;28;20064;-61
2021/05/04 12:21:26;;;;;;;2.50;0.90;;;;;;;;;;5093399;28;20115;-60
2021/05/04 12:23:51;;;;;;;1.27;0.98;;;;;;;;;;5094422;28;20093;-60
2021/05/04 12:26:19;;;;;;;1.00;0.98;;;;;;;;;;5094405;28;20024;-60
2021/05/04 12:28:45;;;;;;;3.63;1.10;;;;;;;;;;5094293;28;20118;-61
2021/05/04 12:31:12;;;;;;;1.30;1.20;;;;;;;;;;5094172;28;20016;-61
2021/05/04 12:33:38;;;;;;;1.50;1.40;;;;;;;;;;5094367;28;20035;-61
2021/05/04 12:36:09;;;;;;;0.63;0.63;;;;;;;;;;5094195;28;20027;-61
2021/05/04 12:38:58;;;;;;;0.60;0.60;;;;;;;;;;5094242;28;20543;-61
2021/05/04 12:41:30;;;;;;;0.65;0.65;;;;;;;;;;5093034;28;20363;-61
2021/05/04 12:46:40;;;;;;;0.93;0.70;;;;;;;;;;5094211;28;20116;-60
2021/05/04 12:49:06;;;;;;;1.08;1.08;;;;;;;;;;5093846;28;20032;-60
2021/05/04 12:51:32;;;;;;;0.88;0.70;;;;;;;;;;5093914;28;20077;-61
2021/05/04 12:54:13;;;;;;;0.63;0.63;;;;;;;;;;5094040;28;20024;-61
2021/05/04 12:56:39;;;;;;;1.48;0.55;;;;;;;;;;5092723;28;20366;-60
2021/05/04 12:59:05;;;;;;;0.60;0.60;;;;;;;;;;5093865;28;20027;-61
2021/05/04 13:01:34;;;;;;;1.55;1.10;;;;;;;;;;5093778;28;20032;-60
2021/05/04 13:04:02;;;;;;;0.70;0.70;;;;;;;;;;5093917;28;20031;-60
2021/05/04 13:06:33;;;;;;;0.82;0.82;;;;;;;;;;5093822;28;20481;-60
2021/05/04 13:09:09;;;;;;;0.80;0.80;;;;;;;;;;5093628;28;20032;-60
2021/05/04 13:31:37;;;;;;;1.02;1.00;;;;;;;;;;5093147;28;20438;-61
2021/05/04 13:34:04;;;;;;;3.25;1.00;;;;;;;;;;5093357;28;20096;-61
2021/05/04 13:36:30;;;;;;;0.98;0.98;;;;;;;;;;5093257;28;20054;-61
2021/05/04 13:49:42;;;;;;;10.63;2.20;;;;;;;;;;5093210;28;20028;-60
2021/05/04 13:52:07;;;;;;;1.10;1.05;;;;;;;;;;5093136;28;20031;-61
2021/05/04 13:54:34;;;;;;;3.55;1.90;;;;;;;;;;5093114;28;20028;-61
2021/05/04 13:56:59;;;;;;;3.50;0.93;;;;;;;;;;5092960;28;20012;-61
2021/05/04 13:59:25;;;;;;;1.25;1.02;;;;;;;;;;5092779;28;20118;-61
2021/05/04 14:01:59;;;;;;;1.77;1.67;;;;;;;;;;5093063;28;20059;-60
2021/05/04 14:04:42;;;;;;;2.05;1.08;;;;;;;;;;5091921;28;20028;-61
2021/05/04 14:28:36;;;;;;;3.85;1.38;;;;;;;;;;5092731;28;20036;-62
2021/05/04 14:31:01;;;;;;;0.90;0.90;;;;;;;;;;5091234;28;20099;-62
2021/05/04 14:33:27;;;;;;;4.63;1.45;;;;;;;;;;5092066;28;20107;-61
2021/05/04 14:35:56;;;;;;;3.63;1.20;;;;;;;;;;5091500;28;20095;-62
2021/05/04 14:44:15;;;;;;;3.00;1.75;;;;;;;;;;5058279;28;20121;-62
2021/05/04 14:59:49;;;;;;;2.75;1.90;;;;;;;;;;5096447;28;20016;-62
2021/05/04 15:02:14;;;;;;;2.25;0.90;;;;;;;;;;5096443;28;20095;-62
2021/05/04 15:04:45;;;;;;;1.52;1.40;;;;;;;;;;5096539;28;20030;-62
2021/05/04 15:07:10;;;;;;;;;;;;;;;;;;5095666;28;20058;-62
2021/05/04 15:09:36;;;;;;;3.00;1.67;;;;;;;;;;5096274;28;20634;-62
2021/05/04 15:12:03;;;;;;;2.45;1.33;;;;;;;;;;5095106;28;20393;-62
2021/05/04 15:14:40;;;;;;;8.48;2.10;;;;;;;;;;5096113;28;20023;-62
2021/05/04 15:17:12;;;;;;;2.25;1.45;;;;;;;;;;5096323;28;20393;-62
2021/05/04 15:22:22;;;;;;;2.15;1.60;;;;;;;;;;5095649;28;20024;-62
2021/05/04 15:24:47;;;;;;;2.78;1.70;;;;;;;;;;5095973;28;20023;-62
2021/05/04 15:27:13;;;;;;;2.47;1.08;;;;;;;;;;5096263;28;20428;-62
2021/05/04 15:29:39;;;;;;;3.10;1.90;;;;;;;;;;5095688;28;20038;-62
2021/05/04 15:32:12;;;;;;;1.50;1.42;;;;;;;;;;5095607;28;20477;-62
2021/05/04 15:34:38;;;;;;;2.28;1.50;;;;;;;;;;5095482;28;20447;-62
2021/05/04 15:37:03;;;;;;;1.38;1.27;;;;;;;;;;5095392;28;20056;-62
2021/05/04 15:39:29;;;;;;;2.08;1.60;;;;;;;;;;5095367;28;20032;-62
2021/05/04 15:41:55;;;;;;;2.40;1.20;;;;;;;;;;5095322;28;20016;-62
2021/05/04 15:44:22;;;;;;;3.33;1.60;;;;;;;;;;5093765;28;20138;-62
2021/05/04 15:46:52;;;;;;;1.65;0.55;;;;;;;;;;5094104;28;20028;-62
2021/05/04 16:07:33;;;;;;;0.75;0.75;;;;;;;;;;5094982;28;20090;-62
2021/05/04 16:09:59;;;;;;;1.58;1.27;;;;;;;;;;5095034;28;20032;-64